Time;durP1;ratioP1;P1;durP2;ratioP2;P2;SDS_P1;SDS_P2;PMS_P1;PMS_P2;Temp;Humidity;BMP_temperature;BMP_pressure;BME280_temperature;BME280_humidity;BME280_pressure;Samples;Min_cycle;Max_cycle;Signal;HPM_P1;HPM_P2
2024/01/07 00:00:56;;;;;;;33.38;17.48;;;;;;;;;;4948534;29;20073;-78
2024/01/07 00:03:23;;;;;;;27.92;16.52;;;;;;;;;;4935547;29;20074;-79
2024/01/07 00:05:49;;;;;;;28.90;16.55;;;;;;;;;;4934577;29;20082;-79
2024/01/07 00:08:16;;;;;;;30.13;16.23;;;;;;;;;;4934039;29;20566;-79
2024/01/07 00:10:43;;;;;;;26.65;15.43;;;;;;;;;;4927126;29;20043;-80
2024/01/07 00:13:10;;;;;;;31.60;15.57;;;;;;;;;;4933649;29;20420;-80
2024/01/07 00:15:37;;;;;;;31.77;15.85;;;;;;;;;;4934627;29;20055;-78
2024/01/07 00:18:04;;;;;;;28.45;15.60;;;;;;;;;;4947012;29;20055;-78
2024/01/07 00:20:31;;;;;;;27.95;15.57;;;;;;;;;;4941770;29;20059;-79
2024/01/07 00:22:58;;;;;;;30.13;15.85;;;;;;;;;;4930071;29;20058;-80
2024/01/07 00:25:24;;;;;;;32.53;16.05;;;;;;;;;;4938099;29;20068;-78
2024/01/07 00:27:55;;;;;;;28.45;14.85;;;;;;;;;;4930650;29;20048;-79
2024/01/07 00:30:22;;;;;;;29.52;15.25;;;;;;;;;;4931611;29;20074;-79
2024/01/07 00:32:51;;;;;;;29.55;15.85;;;;;;;;;;4932597;29;20048;-79
2024/01/07 00:35:18;;;;;;;28.27;15.18;;;;;;;;;;4933938;29;20043;-79
2024/01/07 00:37:45;;;;;;;25.05;14.55;;;;;;;;;;4954075;29;20058;-79
2024/01/07 00:40:12;;;;;;;27.90;14.23;;;;;;;;;;4932529;29;20059;-80
2024/01/07 00:42:39;;;;;;;23.48;13.57;;;;;;;;;;4939056;29;20039;-79
2024/01/07 00:45:07;;;;;;;24.63;14.02;;;;;;;;;;4933997;29;20058;-79
2024/01/07 00:47:33;;;;;;;23.38;13.02;;;;;;;;;;4939027;29;20054;-79
2024/01/07 00:50:00;;;;;;;23.35;13.45;;;;;;;;;;4935821;29;20073;-80
2024/01/07 00:52:27;;;;;;;19.98;12.20;;;;;;;;;;4933442;29;20052;-78
2024/01/07 00:54:54;;;;;;;24.88;13.18;;;;;;;;;;4936927;29;20047;-79
2024/01/07 00:57:22;;;;;;;24.42;13.10;;;;;;;;;;4932803;29;20056;-78
2024/01/07 00:59:50;;;;;;;22.60;13.38;;;;;;;;;;4934768;29;20112;-80
2024/01/07 01:02:17;;;;;;;22.70;13.15;;;;;;;;;;4938242;29;20054;-79
2024/01/07 01:04:44;;;;;;;23.85;13.90;;;;;;;;;;4952579;29;20047;-79
2024/01/07 01:07:11;;;;;;;21.48;13.38;;;;;;;;;;4937316;29;20079;-78
2024/01/07 01:09:38;;;;;;;21.85;12.65;;;;;;;;;;4950441;29;20079;-78
2024/01/07 01:12:05;;;;;;;26.02;12.52;;;;;;;;;;4937425;29;20048;-78
2024/01/07 01:14:32;;;;;;;22.88;13.23;;;;;;;;;;4939515;29;20047;-78
2024/01/07 01:16:59;;;;;;;20.45;12.70;;;;;;;;;;4932358;29;20051;-78
2024/01/07 01:19:26;;;;;;;24.23;13.65;;;;;;;;;;4933418;29;20052;-78
2024/01/07 01:21:53;;;;;;;22.63;13.30;;;;;;;;;;4938591;29;20105;-79
2024/01/07 01:24:20;;;;;;;22.45;12.23;;;;;;;;;;4938962;29;20058;-79
2024/01/07 01:26:47;;;;;;;24.30;12.20;;;;;;;;;;4936305;29;20355;-78
2024/01/07 01:29:13;;;;;;;21.27;12.90;;;;;;;;;;4939765;29;20055;-79
2024/01/07 01:31:40;;;;;;;21.55;12.57;;;;;;;;;;4937888;29;20075;-79
2024/01/07 01:34:07;;;;;;;20.80;12.50;;;;;;;;;;4939141;29;20052;-79
2024/01/07 01:36:35;;;;;;;23.30;13.60;;;;;;;;;;4958940;29;20055;-79
2024/01/07 01:39:01;;;;;;;25.27;12.43;;;;;;;;;;4934611;29;20063;-78
2024/01/07 01:41:28;;;;;;;24.20;13.20;;;;;;;;;;4951697;29;20047;-79
2024/01/07 01:43:59;;;;;;;22.55;12.63;;;;;;;;;;4938986;29;20047;-77
2024/01/07 01:46:26;;;;;;;22.05;13.60;;;;;;;;;;4933615;29;20039;-78
2024/01/07 01:48:53;;;;;;;21.73;12.30;;;;;;;;;;4937921;29;20125;-78
2024/01/07 01:51:20;;;;;;;20.85;12.88;;;;;;;;;;4947268;29;20123;-78
2024/01/07 01:53:48;;;;;;;21.33;12.95;;;;;;;;;;4954490;28;20051;-78
2024/01/07 01:56:14;;;;;;;20.88;12.13;;;;;;;;;;4936838;29;20059;-79
2024/01/07 01:58:41;;;;;;;25.33;13.32;;;;;;;;;;4939841;29;20051;-78
2024/01/07 02:01:08;;;;;;;28.83;14.63;;;;;;;;;;4953868;29;20055;-78
2024/01/07 02:03:35;;;;;;;22.85;13.35;;;;;;;;;;4939742;29;20072;-79
2024/01/07 02:06:02;;;;;;;27.88;13.82;;;;;;;;;;4934597;29;20055;-79
2024/01/07 02:08:29;;;;;;;24.38;13.60;;;;;;;;;;4933303;29;20087;-79
2024/01/07 02:10:56;;;;;;;26.10;14.82;;;;;;;;;;4926721;29;20076;-78
2024/01/07 02:13:22;;;;;;;23.30;13.55;;;;;;;;;;4929493;29;20145;-80
2024/01/07 02:15:49;;;;;;;27.38;14.77;;;;;;;;;;4947759;29;20047;-79
2024/01/07 02:18:16;;;;;;;25.15;14.07;;;;;;;;;;4934926;29;20086;-85
2024/01/07 02:20:43;;;;;;;27.48;15.65;;;;;;;;;;4934220;29;20123;-77
2024/01/07 02:23:10;;;;;;;23.58;14.32;;;;;;;;;;4931864;29;20416;-79
2024/01/07 02:25:37;;;;;;;25.55;14.90;;;;;;;;;;4930295;29;20081;-79
2024/01/07 02:28:05;;;;;;;25.50;15.10;;;;;;;;;;4948106;28;20055;-79
2024/01/07 02:30:32;;;;;;;24.60;14.48;;;;;;;;;;4930247;29;20058;-79
2024/01/07 02:33:03;;;;;;;28.00;15.95;;;;;;;;;;4944696;29;20059;-79
2024/01/07 02:35:30;;;;;;;25.83;15.23;;;;;;;;;;4933079;29;20041;-79
2024/01/07 02:37:57;;;;;;;26.55;15.20;;;;;;;;;;4931601;29;20054;-78
2024/01/07 02:40:24;;;;;;;29.98;16.92;;;;;;;;;;4931743;29;20059;-79
2024/01/07 02:42:56;;;;;;;29.90;16.00;;;;;;;;;;4946949;29;20059;-79
2024/01/07 02:45:23;;;;;;;27.05;15.32;;;;;;;;;;4949189;29;20484;-79
2024/01/07 02:47:50;;;;;;;29.48;16.65;;;;;;;;;;4932409;29;20043;-79
2024/01/07 02:50:17;;;;;;;32.50;17.38;;;;;;;;;;4931485;29;20055;-79
2024/01/07 02:52:44;;;;;;;27.90;15.77;;;;;;;;;;4931455;29;20590;-79
2024/01/07 02:55:11;;;;;;;31.88;16.60;;;;;;;;;;4932539;29;20051;-79
2024/01/07 02:57:38;;;;;;;27.52;15.20;;;;;;;;;;4929750;29;20071;-79
2024/01/07 03:00:05;;;;;;;24.80;16.15;;;;;;;;;;4927108;29;20057;-79
2024/01/07 03:02:32;;;;;;;25.95;15.20;;;;;;;;;;4936597;29;20058;-80
2024/01/07 03:04:59;;;;;;;24.42;15.05;;;;;;;;;;4945680;29;20047;-78
2024/01/07 03:07:26;;;;;;;23.88;16.00;;;;;;;;;;4941263;29;20055;-78
2024/01/07 03:09:53;;;;;;;26.73;15.13;;;;;;;;;;4940983;29;20051;-79
2024/01/07 03:12:20;;;;;;;25.38;15.57;;;;;;;;;;4938117;29;20082;-79
2024/01/07 03:14:47;;;;;;;26.00;15.35;;;;;;;;;;4936127;29;20098;-79
2024/01/07 03:17:16;;;;;;;24.05;14.80;;;;;;;;;;4937510;29;20191;-79
2024/01/07 03:19:43;;;;;;;26.23;14.50;;;;;;;;;;4937187;29;20526;-78
2024/01/07 03:22:10;;;;;;;24.67;14.98;;;;;;;;;;4960361;29;20082;-79
2024/01/07 03:24:37;;;;;;;23.63;13.77;;;;;;;;;;4968736;29;20055;-79
2024/01/07 03:27:04;;;;;;;21.88;13.68;;;;;;;;;;4933013;29;20053;-79
2024/01/07 03:29:31;;;;;;;23.95;13.73;;;;;;;;;;4930920;29;20059;-79
2024/01/07 03:31:58;;;;;;;24.38;13.35;;;;;;;;;;4932945;29;20058;-79
2024/01/07 03:34:24;;;;;;;22.20;14.40;;;;;;;;;;4930715;29;20051;-79
2024/01/07 03:36:52;;;;;;;25.42;14.23;;;;;;;;;;4926809;29;20063;-79
2024/01/07 03:39:18;;;;;;;22.67;14.35;;;;;;;;;;4931702;29;20431;-78
2024/01/07 03:41:45;;;;;;;23.00;14.32;;;;;;;;;;4931972;29;20090;-78
2024/01/07 03:44:12;;;;;;;21.17;13.55;;;;;;;;;;4932810;29;20055;-79
2024/01/07 03:46:39;;;;;;;24.15;13.52;;;;;;;;;;4933982;29;20066;-78
2024/01/07 03:49:06;;;;;;;21.25;13.50;;;;;;;;;;4935495;29;20067;-78
2024/01/07 03:51:33;;;;;;;22.25;14.18;;;;;;;;;;4935233;29;20051;-77
2024/01/07 03:53:59;;;;;;;23.33;13.35;;;;;;;;;;4934748;29;20062;-78
2024/01/07 03:56:26;;;;;;;23.35;14.38;;;;;;;;;;4933587;29;20051;-78
2024/01/07 03:58:53;;;;;;;21.33;13.50;;;;;;;;;;4934759;29;20071;-78
2024/01/07 04:01:20;;;;;;;26.55;13.82;;;;;;;;;;4935922;29;20482;-78
2024/01/07 04:03:47;;;;;;;26.40;13.55;;;;;;;;;;4935785;29;20055;-79
2024/01/07 04:06:14;;;;;;;19.90;13.20;;;;;;;;;;4936196;29;20059;-78
2024/01/07 04:08:41;;;;;;;20.00;12.35;;;;;;;;;;4936743;29;20053;-78
2024/01/07 04:11:08;;;;;;;23.30;14.05;;;;;;;;;;4937920;29;20086;-78
2024/01/07 04:13:34;;;;;;;25.80;13.35;;;;;;;;;;4938057;29;20078;-79
2024/01/07 04:16:01;;;;;;;24.27;13.95;;;;;;;;;;4936490;29;20106;-79
2024/01/07 04:18:28;;;;;;;23.17;13.32;;;;;;;;;;4928695;29;20078;-79
2024/01/07 04:20:55;;;;;;;27.45;14.77;;;;;;;;;;4929558;29;20058;-79
2024/01/07 04:23:22;;;;;;;25.15;12.95;;;;;;;;;;4931221;29;20055;-78
2024/01/07 04:25:49;;;;;;;26.45;13.98;;;;;;;;;;4912463;29;20051;-79
2024/01/07 04:28:16;;;;;;;22.75;13.95;;;;;;;;;;4916264;29;20055;-78
2024/01/07 04:30:43;;;;;;;20.33;13.10;;;;;;;;;;4916902;29;20047;-79
2024/01/07 04:33:10;;;;;;;26.20;12.90;;;;;;;;;;4916959;29;20055;-80
2024/01/07 04:35:37;;;;;;;23.88;14.00;;;;;;;;;;4936051;29;20051;-79
2024/01/07 04:38:03;;;;;;;22.45;13.02;;;;;;;;;;4938286;29;20111;-79
2024/01/07 04:40:30;;;;;;;24.15;14.13;;;;;;;;;;4938292;29;20578;-79
2024/01/07 04:42:57;;;;;;;19.55;12.18;;;;;;;;;;4938220;29;20075;-79
2024/01/07 04:45:24;;;;;;;24.45;14.00;;;;;;;;;;4953553;29;20051;-78
2024/01/07 04:47:51;;;;;;;23.13;12.68;;;;;;;;;;4937349;29;20066;-78
2024/01/07 04:50:19;;;;;;;25.15;13.38;;;;;;;;;;4938160;29;20063;-79
2024/01/07 04:52:46;;;;;;;23.17;12.57;;;;;;;;;;4938035;29;20062;-78
2024/01/07 04:55:13;;;;;;;20.95;12.75;;;;;;;;;;4933673;29;20051;-80
2024/01/07 04:57:40;;;;;;;21.52;13.68;;;;;;;;;;4936494;29;20059;-80
2024/01/07 05:00:07;;;;;;;21.63;12.70;;;;;;;;;;4932659;29;20135;-79
2024/01/07 05:02:34;;;;;;;22.60;13.13;;;;;;;;;;4935718;29;20103;-79
2024/01/07 05:05:01;;;;;;;22.45;12.93;;;;;;;;;;4933823;29;20062;-79
2024/01/07 05:07:28;;;;;;;22.90;12.18;;;;;;;;;;4952267;29;20102;-79
2024/01/07 05:09:55;;;;;;;21.88;13.00;;;;;;;;;;4932881;29;20071;-78
2024/01/07 05:12:22;;;;;;;22.73;13.32;;;;;;;;;;4933742;29;20051;-78
2024/01/07 05:14:49;;;;;;;21.60;12.02;;;;;;;;;;4934168;29;20055;-79
2024/01/07 05:17:16;;;;;;;20.27;11.55;;;;;;;;;;4933819;29;20055;-79
2024/01/07 05:19:43;;;;;;;22.73;10.95;;;;;;;;;;4936026;29;20354;-78
2024/01/07 05:22:10;;;;;;;21.48;11.27;;;;;;;;;;4894848;29;1153920;-79
2024/01/07 05:24:38;;;;;;;22.45;10.85;;;;;;;;;;4943330;29;20322;-78
2024/01/07 05:27:05;;;;;;;20.48;10.70;;;;;;;;;;4938572;29;20060;-78
2024/01/07 05:29:33;;;;;;;19.58;10.82;;;;;;;;;;4939325;29;20110;-79
2024/01/07 05:32:01;;;;;;;17.65;10.98;;;;;;;;;;4936883;29;20071;-79
2024/01/07 05:34:28;;;;;;;19.65;10.40;;;;;;;;;;4939122;29;20051;-78
2024/01/07 05:36:55;;;;;;;18.88;10.57;;;;;;;;;;4935176;29;20048;-79
2024/01/07 05:39:22;;;;;;;23.63;11.45;;;;;;;;;;4953025;29;20051;-80
2024/01/07 05:41:49;;;;;;;19.63;11.18;;;;;;;;;;4935646;29;20048;-79
2024/01/07 05:44:16;;;;;;;18.85;10.63;;;;;;;;;;4934795;29;20047;-79
2024/01/07 05:46:42;;;;;;;20.55;10.15;;;;;;;;;;4937984;29;20051;-78
2024/01/07 05:49:10;;;;;;;20.13;10.75;;;;;;;;;;4951042;29;20475;-80
2024/01/07 05:51:41;;;;;;;20.00;11.23;;;;;;;;;;4936850;29;20119;-78
2024/01/07 05:54:08;;;;;;;21.33;11.02;;;;;;;;;;4933351;29;20107;-79
2024/01/07 05:56:39;;;;;;;19.52;10.15;;;;;;;;;;4935884;29;20597;-79
2024/01/07 05:59:07;;;;;;;17.60;10.13;;;;;;;;;;4934515;29;20051;-79
2024/01/07 06:01:34;;;;;;;19.27;9.90;;;;;;;;;;4937409;29;20079;-79
2024/01/07 06:04:02;;;;;;;17.63;10.15;;;;;;;;;;4935120;29;20056;-79
2024/01/07 06:06:29;;;;;;;19.23;10.85;;;;;;;;;;4950261;29;20130;-80
2024/01/07 06:08:56;;;;;;;17.40;10.73;;;;;;;;;;4933847;29;20079;-79
2024/01/07 06:11:23;;;;;;;17.05;10.15;;;;;;;;;;4933534;29;20063;-78
2024/01/07 06:13:50;;;;;;;18.52;11.18;;;;;;;;;;4929757;29;20088;-78
2024/01/07 06:16:17;;;;;;;18.45;10.57;;;;;;;;;;4924020;29;20047;-79
2024/01/07 06:18:44;;;;;;;19.75;10.93;;;;;;;;;;4930309;29;20055;-79
2024/01/07 06:21:11;;;;;;;15.30;9.68;;;;;;;;;;4933094;29;20057;-79
2024/01/07 06:23:37;;;;;;;19.45;11.05;;;;;;;;;;4950493;29;20079;-78
2024/01/07 06:26:05;;;;;;;15.10;9.85;;;;;;;;;;4935398;29;20048;-78
2024/01/07 06:28:33;;;;;;;19.30;10.40;;;;;;;;;;4937849;29;20087;-79
2024/01/07 06:31:02;;;;;;;18.10;10.77;;;;;;;;;;4931121;29;20055;-78
2024/01/07 06:33:30;;;;;;;17.15;9.77;;;;;;;;;;4932526;29;20058;-78
2024/01/07 06:35:57;;;;;;;21.70;11.82;;;;;;;;;;4930858;29;20082;-78
2024/01/07 06:38:24;;;;;;;19.40;10.48;;;;;;;;;;4917585;29;20092;-78
2024/01/07 06:40:51;;;;;;;16.85;10.68;;;;;;;;;;4929311;29;20083;-79
2024/01/07 06:43:18;;;;;;;20.25;10.35;;;;;;;;;;4934486;29;20079;-82
2024/01/07 06:45:45;;;;;;;17.42;9.90;;;;;;;;;;4934694;29;20072;-79
2024/01/07 06:48:12;;;;;;;16.05;10.50;;;;;;;;;;4932843;29;20062;-79
2024/01/07 06:50:39;;;;;;;20.17;11.73;;;;;;;;;;4934417;29;20059;-79
2024/01/07 06:53:06;;;;;;;16.15;10.20;;;;;;;;;;4949447;29;20047;-80
2024/01/07 06:55:32;;;;;;;23.70;12.15;;;;;;;;;;4948931;29;20056;-79
2024/01/07 06:57:59;;;;;;;19.08;12.32;;;;;;;;;;4948483;29;20504;-79
2024/01/07 07:00:26;;;;;;;15.15;10.23;;;;;;;;;;4951110;29;20062;-78
2024/01/07 07:02:53;;;;;;;15.38;10.18;;;;;;;;;;4931688;29;20155;-79
2024/01/07 07:05:20;;;;;;;13.80;10.00;;;;;;;;;;4931750;29;20503;-81
2024/01/07 07:07:47;;;;;;;14.77;10.18;;;;;;;;;;4950745;29;20123;-80
2024/01/07 07:10:15;;;;;;;14.30;9.48;;;;;;;;;;4925012;29;20066;-85
2024/01/07 07:12:42;;;;;;;10.48;9.13;;;;;;;;;;4923931;29;20055;-85
2024/01/07 07:15:09;;;;;;;12.07;8.40;;;;;;;;;;4923281;29;20055;-83
2024/01/07 07:17:38;;;;;;;15.45;10.65;;;;;;;;;;4909527;29;20055;-82
2024/01/07 07:20:06;;;;;;;15.88;9.13;;;;;;;;;;4920962;29;20058;-83
2024/01/07 07:22:33;;;;;;;12.95;8.65;;;;;;;;;;4923381;29;20138;-83
2024/01/07 07:25:00;;;;;;;11.30;8.32;;;;;;;;;;4921091;29;20056;-84
2024/01/07 07:27:28;;;;;;;11.25;8.13;;;;;;;;;;4923868;29;20054;-83
2024/01/07 07:29:55;;;;;;;14.07;8.38;;;;;;;;;;4918920;29;20059;-84
2024/01/07 07:32:22;;;;;;;10.55;8.10;;;;;;;;;;4924322;29;20063;-83
2024/01/07 07:34:49;;;;;;;10.55;8.00;;;;;;;;;;4955365;28;20090;-84
2024/01/07 07:37:15;;;;;;;12.57;8.10;;;;;;;;;;4945939;29;20061;-84
2024/01/07 07:39:46;;;;;;;13.30;7.65;;;;;;;;;;4931795;29;20051;-83
2024/01/07 07:42:13;;;;;;;10.95;7.72;;;;;;;;;;4923345;29;20051;-82
2024/01/07 07:44:39;;;;;;;11.05;7.88;;;;;;;;;;4918384;29;20087;-83
2024/01/07 07:47:07;;;;;;;10.02;7.20;;;;;;;;;;4918957;29;20103;-82
2024/01/07 07:49:36;;;;;;;10.40;7.43;;;;;;;;;;4921217;29;20061;-82
2024/01/07 07:52:04;;;;;;;10.82;7.03;;;;;;;;;;4932317;29;20503;-83
2024/01/07 07:54:30;;;;;;;12.30;7.10;;;;;;;;;;4935993;29;20491;-82
2024/01/07 07:57:02;;;;;;;11.45;8.23;;;;;;;;;;4920835;29;20063;-83
2024/01/07 07:59:28;;;;;;;11.15;8.35;;;;;;;;;;4920922;29;20046;-83
2024/01/07 08:01:55;;;;;;;9.95;7.38;;;;;;;;;;4919325;29;20051;-83
2024/01/07 08:04:22;;;;;;;10.57;6.68;;;;;;;;;;4920443;29;20056;-83
2024/01/07 08:06:49;;;;;;;10.27;7.18;;;;;;;;;;4919894;29;20051;-82
2024/01/07 08:09:16;;;;;;;9.27;6.13;;;;;;;;;;4936055;29;20054;-82
2024/01/07 08:11:43;;;;;;;10.98;6.85;;;;;;;;;;4930793;29;23108;-80
2024/01/07 08:14:10;;;;;;;12.73;7.32;;;;;;;;;;4934036;29;20459;-80
2024/01/07 08:16:37;;;;;;;10.20;6.95;;;;;;;;;;4934259;29;20122;-81
2024/01/07 08:19:04;;;;;;;9.73;6.57;;;;;;;;;;4916489;29;20142;-82
2024/01/07 08:21:31;;;;;;;9.07;5.85;;;;;;;;;;4932911;29;20125;-81
2024/01/07 08:23:58;;;;;;;10.73;6.93;;;;;;;;;;4938628;29;20554;-82
2024/01/07 08:26:25;;;;;;;10.38;6.72;;;;;;;;;;4922207;29;20051;-81
2024/01/07 08:28:52;;;;;;;9.50;6.10;;;;;;;;;;4920244;29;20070;-80
2024/01/07 08:31:19;;;;;;;7.95;5.50;;;;;;;;;;4950003;29;20055;-83
2024/01/07 08:33:47;;;;;;;9.20;6.15;;;;;;;;;;4945724;29;20759;-85
2024/01/07 08:36:18;;;;;;;10.52;5.65;;;;;;;;;;4953811;29;20094;-85
2024/01/07 08:38:46;;;;;;;8.88;6.00;;;;;;;;;;4951869;29;20047;-84
2024/01/07 08:41:15;;;;;;;11.57;6.05;;;;;;;;;;4937377;29;20051;-84
2024/01/07 08:43:43;;;;;;;7.72;5.45;;;;;;;;;;4938772;29;20059;-83
2024/01/07 08:46:11;;;;;;;8.18;5.75;;;;;;;;;;4953231;28;20082;-83
2024/01/07 08:48:38;;;;;;;10.65;5.90;;;;;;;;;;4936568;29;20531;-85
2024/01/07 08:51:05;;;;;;;8.27;5.30;;;;;;;;;;4932378;29;20144;-81
2024/01/07 08:53:32;;;;;;;8.07;5.35;;;;;;;;;;4948887;29;20058;-81
2024/01/07 08:55:59;;;;;;;7.18;4.43;;;;;;;;;;4935715;29;20103;-81
2024/01/07 08:58:26;;;;;;;7.18;4.32;;;;;;;;;;4935992;29;20043;-81
2024/01/07 09:00:53;;;;;;;6.18;3.95;;;;;;;;;;4935465;29;20050;-81
2024/01/07 09:03:20;;;;;;;6.05;4.45;;;;;;;;;;4934781;29;20079;-79
2024/01/07 09:05:47;;;;;;;7.65;4.35;;;;;;;;;;4949901;29;20071;-81
2024/01/07 09:08:14;;;;;;;4.72;3.22;;;;;;;;;;4931721;29;20110;-81
2024/01/07 09:10:41;;;;;;;7.88;4.35;;;;;;;;;;4934321;29;20058;-82
2024/01/07 09:13:08;;;;;;;4.90;3.60;;;;;;;;;;4935179;29;20047;-81
2024/01/07 09:15:35;;;;;;;3.85;3.00;;;;;;;;;;4934741;29;20059;-81
2024/01/07 09:18:03;;;;;;;5.30;3.25;;;;;;;;;;4934741;29;20043;-81
2024/01/07 09:20:30;;;;;;;4.30;3.08;;;;;;;;;;4949342;28;20059;-80
2024/01/07 09:22:57;;;;;;;5.78;3.28;;;;;;;;;;4919226;29;20051;-80
2024/01/07 09:25:23;;;;;;;5.28;3.30;;;;;;;;;;4921725;29;20058;-80
2024/01/07 09:27:50;;;;;;;5.80;3.63;;;;;;;;;;4920793;29;20095;-80
2024/01/07 09:30:17;;;;;;;4.78;3.28;;;;;;;;;;4938026;29;20059;-80
2024/01/07 09:32:44;;;;;;;5.32;3.53;;;;;;;;;;4938133;29;20047;-79
2024/01/07 09:35:11;;;;;;;5.30;3.25;;;;;;;;;;4950472;28;20051;-80
2024/01/07 09:37:38;;;;;;;5.28;3.90;;;;;;;;;;4938588;29;20127;-80
2024/01/07 09:40:06;;;;;;;3.90;2.90;;;;;;;;;;4936763;29;20103;-80
2024/01/07 09:42:33;;;;;;;5.38;3.65;;;;;;;;;;4939804;29;20059;-80
2024/01/07 09:45:02;;;;;;;4.93;3.42;;;;;;;;;;4951711;29;20066;-80
2024/01/07 09:47:29;;;;;;;5.13;3.63;;;;;;;;;;4947301;29;20047;-80
2024/01/07 09:49:56;;;;;;;6.07;3.28;;;;;;;;;;4933618;29;20065;-80
2024/01/07 09:52:23;;;;;;;4.32;3.15;;;;;;;;;;4949925;29;20051;-80
2024/01/07 09:54:58;;;;;;;4.28;3.33;;;;;;;;;;4922959;29;20054;-81
2024/01/07 09:57:26;;;;;;;4.57;3.35;;;;;;;;;;4937983;29;20126;-81
2024/01/07 09:59:53;;;;;;;4.47;3.15;;;;;;;;;;4921711;29;20565;-82
2024/01/07 10:02:21;;;;;;;5.28;3.60;;;;;;;;;;4937822;29;20047;-81
2024/01/07 10:04:49;;;;;;;5.57;3.95;;;;;;;;;;4921061;29;20428;-82
2024/01/07 10:07:17;;;;;;;5.65;3.75;;;;;;;;;;4923267;29;20047;-81
2024/01/07 10:09:44;;;;;;;5.50;3.75;;;;;;;;;;4937550;29;20102;-82
2024/01/07 10:12:14;;;;;;;4.40;3.40;;;;;;;;;;4938706;29;20055;-81
2024/01/07 10:14:41;;;;;;;5.70;3.75;;;;;;;;;;4953199;29;20051;-81
2024/01/07 10:17:17;;;;;;;4.63;3.40;;;;;;;;;;4937614;29;20051;-82
2024/01/07 10:19:47;;;;;;;5.30;3.63;;;;;;;;;;4936219;28;20118;-81
2024/01/07 10:22:16;;;;;;;5.85;4.32;;;;;;;;;;4938620;29;20431;-81
2024/01/07 10:24:43;;;;;;;5.68;4.20;;;;;;;;;;4938359;29;20051;-81
2024/01/07 10:27:10;;;;;;;5.50;4.10;;;;;;;;;;4933690;29;20051;-81
2024/01/07 10:29:37;;;;;;;6.80;4.55;;;;;;;;;;4937217;29;20432;-81
2024/01/07 10:32:05;;;;;;;6.00;4.30;;;;;;;;;;4921309;28;20544;-80
2024/01/07 10:34:34;;;;;;;5.18;3.75;;;;;;;;;;4936140;29;20087;-80
2024/01/07 10:37:04;;;;;;;5.80;4.35;;;;;;;;;;4936012;29;20137;-79
2024/01/07 10:39:32;;;;;;;5.38;4.13;;;;;;;;;;4917758;29;20051;-79
2024/01/07 10:42:00;;;;;;;7.75;5.03;;;;;;;;;;4940125;29;20145;-80
2024/01/07 10:44:30;;;;;;;5.95;4.47;;;;;;;;;;4937573;29;20435;-78
2024/01/07 10:46:58;;;;;;;6.68;4.63;;;;;;;;;;4945114;28;20442;-79
2024/01/07 10:49:28;;;;;;;8.82;4.65;;;;;;;;;;4935539;29;20054;-79
2024/01/07 10:52:05;;;;;;;6.85;4.57;;;;;;;;;;4936305;29;20047;-79
2024/01/07 10:54:34;;;;;;;7.15;3.85;;;;;;;;;;4949675;29;20062;-80
2024/01/07 10:57:05;;;;;;;6.68;4.72;;;;;;;;;;4933832;29;20070;-80
2024/01/07 10:59:32;;;;;;;7.55;4.40;;;;;;;;;;4961574;28;20566;-80
2024/01/07 11:01:59;;;;;;;6.20;4.15;;;;;;;;;;4944361;29;20055;-83
2024/01/07 11:04:33;;;;;;;4.95;3.67;;;;;;;;;;4936659;29;20059;-78
2024/01/07 11:07:37;;;;;;;6.18;4.40;;;;;;;;;;4950887;28;20115;-73
2024/01/07 11:10:15;;;;;;;5.05;4.25;;;;;;;;;;4948179;29;20069;-79
2024/01/07 11:13:00;;;;;;;7.97;4.88;;;;;;;;;;4952046;29;20575;-79
2024/01/07 11:15:49;;;;;;;6.13;4.28;;;;;;;;;;4952991;29;20055;-79
2024/01/07 11:18:20;;;;;;;5.45;4.40;;;;;;;;;;4965540;28;20065;-79
2024/01/07 11:20:48;;;;;;;5.10;3.78;;;;;;;;;;4921863;29;20059;-79
2024/01/07 11:23:30;;;;;;;5.50;3.90;;;;;;;;;;4942339;29;20050;-78
2024/01/07 11:25:57;;;;;;;6.30;4.72;;;;;;;;;;4952315;28;20075;-78
2024/01/07 11:29:00;;;;;;;5.30;4.20;;;;;;;;;;4956240;29;20518;-79
2024/01/07 11:31:39;;;;;;;4.53;3.67;;;;;;;;;;4943813;29;20062;-79
2024/01/07 11:34:07;;;;;;;6.70;4.43;;;;;;;;;;4951475;29;20067;-79
2024/01/07 11:36:38;;;;;;;7.55;4.60;;;;;;;;;;4953618;29;20055;-78
2024/01/07 11:39:08;;;;;;;5.80;4.38;;;;;;;;;;4938529;29;20051;-78
2024/01/07 11:41:36;;;;;;;6.35;4.38;;;;;;;;;;4936357;29;20162;-80
2024/01/07 11:44:03;;;;;;;6.47;4.47;;;;;;;;;;4935168;29;20102;-80
2024/01/07 11:46:33;;;;;;;6.20;4.30;;;;;;;;;;4952356;29;20127;-80
2024/01/07 11:49:00;;;;;;;6.28;4.10;;;;;;;;;;4918140;29;20110;-80
2024/01/07 11:51:28;;;;;;;7.05;4.82;;;;;;;;;;4936535;29;20047;-78
2024/01/07 11:53:55;;;;;;;6.57;4.40;;;;;;;;;;4919693;29;20055;-78
2024/01/07 11:56:22;;;;;;;7.70;5.07;;;;;;;;;;4936343;29;20058;-83
2024/01/07 11:58:49;;;;;;;7.43;5.15;;;;;;;;;;4918105;29;20047;-79
2024/01/07 12:01:16;;;;;;;6.90;5.05;;;;;;;;;;4949960;29;20055;-79
2024/01/07 12:03:44;;;;;;;7.57;5.57;;;;;;;;;;4929405;29;20057;-78
2024/01/07 12:06:14;;;;;;;6.85;5.25;;;;;;;;;;4933959;29;20047;-78
2024/01/07 12:08:42;;;;;;;7.30;5.20;;;;;;;;;;4935160;28;20062;-79
2024/01/07 12:11:14;;;;;;;6.28;4.70;;;;;;;;;;4935039;29;20082;-79
2024/01/07 12:13:41;;;;;;;7.43;5.30;;;;;;;;;;4937310;29;20414;-78
2024/01/07 12:16:09;;;;;;;8.48;5.28;;;;;;;;;;4933541;29;20059;-78
2024/01/07 12:18:37;;;;;;;9.43;5.15;;;;;;;;;;4949211;28;20134;-79
2024/01/07 12:21:05;;;;;;;8.15;5.32;;;;;;;;;;4916653;29;20059;-79
2024/01/07 12:23:38;;;;;;;7.63;5.10;;;;;;;;;;4934083;29;20055;-79
2024/01/07 12:26:10;;;;;;;8.10;5.05;;;;;;;;;;4919385;29;20043;-79
2024/01/07 12:28:38;;;;;;;8.70;5.70;;;;;;;;;;4934630;29;20051;-79
2024/01/07 12:31:05;;;;;;;8.80;5.63;;;;;;;;;;4917945;29;20055;-79
2024/01/07 12:33:33;;;;;;;7.28;5.90;;;;;;;;;;4931567;29;20051;-79
2024/01/07 12:36:01;;;;;;;9.65;6.50;;;;;;;;;;4933887;29;20115;-79
2024/01/07 12:38:28;;;;;;;8.10;6.05;;;;;;;;;;4917163;29;20102;-79
2024/01/07 12:40:55;;;;;;;9.43;6.10;;;;;;;;;;4932289;29;20082;-80
2024/01/07 12:43:22;;;;;;;8.07;5.38;;;;;;;;;;4944062;29;20511;-79
2024/01/07 12:45:50;;;;;;;8.77;6.93;;;;;;;;;;4919208;29;20083;-80
2024/01/07 12:48:16;;;;;;;8.10;6.10;;;;;;;;;;4933409;29;20542;-80
2024/01/07 12:50:44;;;;;;;8.43;5.90;;;;;;;;;;4933010;29;20062;-80
2024/01/07 12:53:11;;;;;;;9.80;6.25;;;;;;;;;;4932622;29;20059;-79
2024/01/07 12:55:37;;;;;;;9.77;6.05;;;;;;;;;;4950647;28;20101;-80
2024/01/07 12:58:05;;;;;;;9.05;6.32;;;;;;;;;;4933608;29;20102;-79
2024/01/07 13:00:33;;;;;;;10.35;7.18;;;;;;;;;;4951146;29;20139;-79
2024/01/07 13:03:00;;;;;;;9.35;6.00;;;;;;;;;;4935635;29;20059;-80
2024/01/07 13:05:27;;;;;;;7.30;5.80;;;;;;;;;;4934742;29;20515;-79
2024/01/07 13:07:55;;;;;;;8.52;6.07;;;;;;;;;;4938871;29;20047;-80
2024/01/07 13:10:22;;;;;;;8.82;5.70;;;;;;;;;;4938282;29;20069;-79
2024/01/07 13:12:49;;;;;;;8.32;5.82;;;;;;;;;;4937471;29;20534;-79
2024/01/07 13:15:23;;;;;;;9.55;5.95;;;;;;;;;;4938951;29;20113;-79
2024/01/07 13:17:51;;;;;;;10.25;7.30;;;;;;;;;;4921597;29;20043;-80
2024/01/07 13:20:19;;;;;;;8.15;6.45;;;;;;;;;;4953946;28;20569;-80
2024/01/07 13:22:47;;;;;;;10.65;6.47;;;;;;;;;;4938303;29;20051;-79
2024/01/07 13:25:14;;;;;;;9.85;6.38;;;;;;;;;;4937767;29;20098;-79
2024/01/07 13:27:44;;;;;;;9.25;6.55;;;;;;;;;;4937859;29;20039;-79
2024/01/07 13:30:11;;;;;;;11.07;6.65;;;;;;;;;;4954109;28;20055;-79
2024/01/07 13:32:37;;;;;;;8.77;7.05;;;;;;;;;;4952826;29;20118;-80
2024/01/07 13:35:07;;;;;;;8.50;6.57;;;;;;;;;;4937245;29;20499;-79
2024/01/07 13:37:34;;;;;;;8.15;5.90;;;;;;;;;;4936292;29;20048;-79
2024/01/07 13:40:01;;;;;;;10.57;6.97;;;;;;;;;;4952128;29;20062;-79
2024/01/07 13:42:28;;;;;;;11.77;6.88;;;;;;;;;;4937791;29;20055;-80
2024/01/07 13:44:55;;;;;;;10.05;7.00;;;;;;;;;;4954649;29;20055;-79
2024/01/07 13:47:22;;;;;;;9.05;6.55;;;;;;;;;;4938066;29;20117;-80
2024/01/07 13:49:49;;;;;;;10.63;7.13;;;;;;;;;;4921137;29;20059;-80
2024/01/07 13:52:16;;;;;;;9.55;6.80;;;;;;;;;;4937984;29;20458;-80
2024/01/07 13:54:43;;;;;;;10.35;7.57;;;;;;;;;;4938657;29;20055;-80
2024/01/07 13:57:10;;;;;;;11.13;7.60;;;;;;;;;;4922618;29;20463;-80
2024/01/07 13:59:37;;;;;;;11.18;6.97;;;;;;;;;;4936909;29;20067;-79
2024/01/07 14:02:05;;;;;;;12.27;7.47;;;;;;;;;;4921636;29;20051;-81
2024/01/07 14:04:32;;;;;;;12.52;7.55;;;;;;;;;;4935597;29;20062;-80
2024/01/07 14:06:59;;;;;;;10.48;6.90;;;;;;;;;;4921389;29;20057;-80
2024/01/07 14:09:30;;;;;;;11.07;7.13;;;;;;;;;;4938894;29;20418;-81
2024/01/07 14:11:58;;;;;;;10.85;6.88;;;;;;;;;;4920803;29;20156;-80
2024/01/07 14:14:28;;;;;;;12.73;8.30;;;;;;;;;;4958345;28;20059;-81
2024/01/07 14:16:55;;;;;;;11.00;7.38;;;;;;;;;;4937856;29;20047;-80
2024/01/07 14:19:22;;;;;;;12.40;7.85;;;;;;;;;;4951190;29;20047;-79
2024/01/07 14:21:49;;;;;;;13.45;8.55;;;;;;;;;;4921491;29;20046;-80
2024/01/07 14:24:21;;;;;;;10.77;7.15;;;;;;;;;;4936067;29;20418;-80
2024/01/07 14:26:48;;;;;;;12.68;8.35;;;;;;;;;;4933044;29;20063;-80
2024/01/07 14:29:15;;;;;;;14.32;8.02;;;;;;;;;;4946235;29;20126;-79
2024/01/07 14:31:45;;;;;;;11.75;7.97;;;;;;;;;;4930333;29;20051;-80